createdAt,value
2019-02-09T00:01:48.849Z,29.87
2019-02-09T00:04:39.657Z,28.70
2019-02-09T00:07:23.225Z,29.83
2019-02-09T00:10:05.246Z,30.80
2019-02-09T00:12:45.758Z,27.03
2019-02-09T00:15:35.254Z,24.60
2019-02-09T00:18:19.121Z,31.83
2019-02-09T00:21:01.555Z,32.50
2019-02-09T00:23:43.324Z,29.60
2019-02-09T00:26:25.134Z,28.80
2019-02-09T00:32:29.338Z,28.27
2019-02-09T00:35:11.334Z,35.43
2019-02-09T00:37:53.071Z,34.93
2019-02-09T00:40:35.337Z,33.17
2019-02-09T00:43:17.702Z,27.87
2019-02-09T00:45:59.597Z,24.47
2019-02-09T00:48:42.222Z,22.20
2019-02-09T00:51:23.911Z,19.33
2019-02-09T00:54:05.629Z,22.60
2019-02-09T00:56:47.609Z,25.43
2019-02-09T00:59:29.712Z,24.13
2019-02-09T01:02:11.706Z,24.97
2019-02-09T01:04:53.425Z,24.57
2019-02-09T01:07:35.205Z,23.57
2019-02-09T01:10:17.603Z,24.63
2019-02-09T01:12:59.459Z,22.93
2019-02-09T01:15:41.561Z,23.23
2019-02-09T01:18:24.048Z,21.90
2019-02-09T01:21:05.751Z,20.50
2019-02-09T01:23:47.559Z,19.97
2019-02-09T01:26:29.334Z,19.27
2019-02-09T01:29:11.592Z,19.70
2019-02-09T01:31:54.049Z,20.47
2019-02-09T01:34:36.070Z,19.47
2019-02-09T01:37:18.340Z,20.53
2019-02-09T01:40:00.227Z,19.67
2019-02-09T01:42:42.006Z,20.33
2019-02-09T01:45:24.390Z,20.20
2019-02-09T01:48:06.623Z,20.93
2019-02-09T01:50:48.486Z,19.33
2019-02-09T01:53:30.179Z,19.13
2019-02-09T01:56:12.518Z,19.70
2019-02-09T01:58:54.886Z,19.00
2019-02-09T02:01:36.604Z,19.87
2019-02-09T02:04:18.534Z,22.00
2019-02-09T02:07:00.640Z,19.57
2019-02-09T02:09:43.230Z,19.80
2019-02-09T02:12:24.906Z,19.83
2019-02-09T02:15:07.175Z,21.40
2019-02-09T02:17:49.392Z,20.27
2019-02-09T02:20:31.304Z,20.07
2019-02-09T02:23:13.046Z,19.47
2019-02-09T02:25:55.285Z,18.97
2019-02-09T02:28:36.878Z,18.83
2019-02-09T02:31:19.149Z,20.33
2019-02-09T02:34:01.238Z,18.70
2019-02-09T02:36:43.504Z,19.87
2019-02-09T02:39:25.798Z,19.30
2019-02-09T02:42:07.531Z,18.57
2019-02-09T02:44:49.402Z,19.00
2019-02-09T02:47:31.850Z,18.63
2019-02-09T02:50:13.842Z,18.47
2019-02-09T02:52:55.802Z,17.57
2019-02-09T02:55:38.339Z,19.23
2019-02-09T02:58:20.608Z,18.87
2019-02-09T03:01:02.657Z,18.33
2019-02-09T03:03:45.134Z,19.93
2019-02-09T03:06:27.335Z,18.50
2019-02-09T03:09:09.673Z,19.27
2019-02-09T03:11:51.505Z,18.03
2019-02-09T03:14:33.693Z,19.10
2019-02-09T03:17:15.772Z,18.13
2019-02-09T03:19:58.078Z,18.67
2019-02-09T03:22:39.903Z,17.50
2019-02-09T03:25:22.173Z,17.43
2019-02-09T03:28:04.473Z,17.30
2019-02-09T03:30:48.814Z,18.20
2019-02-09T03:33:30.844Z,18.60
2019-02-09T03:36:12.842Z,18.97
2019-02-09T03:38:54.651Z,17.80
2019-02-09T03:41:36.564Z,19.83
2019-02-09T03:44:18.726Z,18.23
2019-02-09T03:47:00.902Z,17.80
2019-02-09T03:49:43.518Z,17.83
2019-02-09T03:52:25.594Z,17.07
2019-02-09T03:55:07.407Z,17.67
2019-02-09T03:57:49.813Z,18.00
2019-02-09T04:00:31.546Z,18.43
2019-02-09T04:03:13.566Z,18.30
2019-02-09T04:05:55.906Z,18.53
2019-02-09T04:08:37.665Z,18.33
2019-02-09T04:11:19.582Z,16.93
2019-02-09T04:14:01.910Z,19.73
2019-02-09T04:16:43.843Z,18.67
2019-02-09T04:19:26.499Z,19.87
2019-02-09T04:22:08.402Z,20.63
2019-02-09T04:24:49.926Z,20.17
2019-02-09T04:27:32.070Z,23.53
2019-02-09T04:30:14.138Z,23.70
2019-02-09T04:32:56.057Z,22.10
2019-02-09T04:35:38.770Z,23.33
2019-02-09T04:38:20.720Z,20.47
2019-02-09T04:41:02.394Z,20.23
2019-02-09T04:43:44.095Z,19.37
2019-02-09T04:46:25.873Z,20.40
2019-02-09T04:49:07.911Z,18.57
2019-02-09T04:51:48.662Z,18.10
2019-02-09T04:54:38.073Z,17.77
2019-02-09T04:57:21.611Z,18.23
2019-02-09T05:00:03.461Z,20.60
2019-02-09T05:02:45.286Z,19.93
2019-02-09T05:05:27.162Z,18.93
2019-02-09T05:08:09.190Z,20.00
2019-02-09T05:10:51.241Z,20.20
2019-02-09T05:13:33.815Z,20.33
2019-02-09T05:16:16.352Z,19.23
2019-02-09T05:18:58.156Z,20.27
2019-02-09T05:21:40.444Z,20.13
2019-02-09T05:24:22.935Z,19.90
2019-02-09T05:27:04.787Z,18.90
2019-02-09T05:29:47.397Z,17.57
2019-02-09T05:32:29.114Z,18.90
2019-02-09T05:35:10.806Z,37.07
2019-02-09T05:37:53.395Z,35.53
2019-02-09T05:40:35.130Z,25.03
2019-02-09T05:43:16.810Z,26.40
2019-02-09T05:45:58.696Z,26.13
2019-02-09T05:48:40.983Z,55.87
2019-02-09T05:51:22.720Z,32.57
2019-02-09T05:54:04.678Z,35.73
2019-02-09T05:56:46.393Z,27.00
2019-02-09T05:59:28.402Z,30.97
2019-02-09T06:02:10.222Z,33.03
2019-02-09T06:04:52.146Z,28.90
2019-02-09T06:07:34.054Z,27.40
2019-02-09T06:10:16.230Z,26.23
2019-02-09T06:12:58.516Z,26.93
2019-02-09T06:15:41.074Z,38.87
2019-02-09T06:18:23.364Z,43.50
2019-02-09T06:21:05.057Z,31.03
2019-02-09T06:23:46.822Z,28.90
2019-02-09T06:26:27.231Z,29.17
2019-02-09T06:29:16.666Z,26.57
2019-02-09T06:32:00.302Z,22.47
2019-02-09T06:34:42.222Z,18.83
2019-02-09T06:37:24.470Z,17.30
2019-02-09T06:40:06.579Z,18.67
2019-02-09T06:42:48.264Z,19.47
2019-02-09T06:45:30.686Z,21.00
2019-02-09T06:48:12.669Z,20.57
2019-02-09T06:50:54.655Z,47.97
2019-02-09T06:53:36.382Z,39.57
2019-02-09T06:56:18.142Z,31.77
2019-02-09T06:59:00.322Z,24.13
2019-02-09T07:01:48.577Z,21.30
2019-02-09T07:04:25.507Z,18.60
2019-02-09T07:07:07.577Z,19.90
2019-02-09T07:09:49.698Z,16.13
2019-02-09T07:12:31.558Z,15.13
2019-02-09T07:15:13.322Z,17.23
2019-02-09T07:17:55.245Z,15.40
2019-02-09T07:20:37.299Z,15.07
2019-02-09T07:23:19.369Z,21.03
2019-02-09T07:25:49.906Z,22.07
2019-02-09T07:28:40.694Z,22.13
2019-02-09T07:31:24.279Z,22.97
2019-02-09T07:33:54.562Z,20.63
2019-02-09T07:36:36.591Z,23.77
2019-02-09T07:39:18.695Z,22.07
2019-02-09T07:42:01.248Z,20.20
2019-02-09T07:44:43.642Z,22.13
2019-02-09T07:47:28.224Z,21.77
2019-02-09T07:50:10.550Z,20.67
2019-02-09T07:52:52.678Z,22.53
2019-02-09T07:55:34.819Z,30.90
2019-02-09T07:58:16.894Z,30.60
2019-02-09T08:00:58.954Z,31.83
2019-02-09T08:03:41.172Z,25.97
2019-02-09T08:06:23.472Z,24.53
2019-02-09T08:09:05.406Z,19.87
2019-02-09T08:11:47.598Z,18.90
2019-02-09T08:14:29.870Z,18.37
2019-02-09T08:17:12.642Z,19.63
2019-02-09T08:19:54.989Z,24.37
2019-02-09T08:22:36.925Z,17.87
2019-02-09T08:25:19.043Z,21.63
2019-02-09T08:28:01.076Z,20.53
2019-02-09T08:30:43.026Z,19.73
2019-02-09T08:33:26.118Z,19.57
2019-02-09T08:36:07.838Z,16.87
2019-02-09T08:38:50.646Z,18.83
2019-02-09T08:41:33.650Z,20.23
2019-02-09T08:44:16.346Z,21.10
2019-02-09T08:46:59.613Z,20.57
2019-02-09T08:49:41.852Z,19.03
2019-02-09T08:52:24.191Z,19.57
2019-02-09T08:55:07.400Z,19.00
2019-02-09T08:57:49.646Z,19.20
2019-02-09T09:00:31.686Z,19.60
2019-02-09T09:03:14.563Z,16.70
2019-02-09T09:05:56.618Z,19.50
2019-02-09T09:08:40.974Z,16.80
2019-02-09T09:11:22.882Z,26.07
2019-02-09T09:14:04.454Z,20.10
2019-02-09T09:16:46.527Z,19.27
2019-02-09T09:19:28.678Z,19.50
2019-02-09T09:22:11.422Z,15.13
2019-02-09T09:24:53.942Z,15.17
2019-02-09T09:27:36.277Z,15.97
2019-02-09T09:30:18.358Z,17.63
2019-02-09T09:33:00.536Z,15.77
2019-02-09T09:35:42.818Z,17.37
2019-02-09T09:38:24.619Z,29.00
2019-02-09T09:41:07.013Z,26.17
2019-02-09T09:43:49.034Z,20.13
2019-02-09T09:46:30.870Z,21.97
2019-02-09T09:49:13.987Z,15.50
2019-02-09T09:51:55.722Z,19.53
2019-02-09T09:54:38.009Z,25.63
2019-02-09T09:57:19.869Z,15.73
2019-02-09T10:00:03.195Z,16.33
2019-02-09T10:02:46.047Z,15.60
2019-02-09T10:05:29.153Z,14.17
2019-02-09T10:08:11.390Z,20.57
2019-02-09T10:10:53.426Z,34.70
2019-02-09T10:13:35.121Z,31.37
2019-02-09T10:16:17.067Z,60.87
2019-02-09T10:18:58.670Z,31.70
2019-02-09T10:21:40.411Z,28.23
2019-02-09T10:24:22.239Z,91.13
2019-02-09T10:27:04.466Z,44.27
2019-02-09T10:29:46.575Z,34.80
2019-02-09T10:32:28.671Z,18.43
2019-02-09T10:35:10.829Z,17.40
2019-02-09T10:37:53.294Z,15.63
2019-02-09T10:40:34.938Z,15.07
2019-02-09T10:43:16.957Z,12.70
2019-02-09T10:46:00.784Z,14.00
2019-02-09T10:48:43.080Z,19.90
2019-02-09T10:51:25.230Z,15.67
2019-02-09T10:54:08.689Z,12.50
2019-02-09T10:56:51.011Z,12.37
2019-02-09T10:59:32.690Z,12.57
2019-02-09T11:02:16.978Z,12.73
2019-02-09T11:04:59.301Z,12.10
2019-02-09T11:07:41.438Z,18.80
2019-02-09T11:10:23.785Z,20.60
2019-02-09T11:13:05.993Z,22.23
2019-02-09T11:15:47.794Z,22.73
2019-02-09T11:18:30.241Z,17.27
2019-02-09T11:21:12.141Z,13.87
2019-02-09T11:23:53.846Z,14.87
2019-02-09T11:26:35.698Z,17.60
2019-02-09T11:29:17.924Z,17.83
2019-02-09T11:31:59.958Z,23.63
2019-02-09T11:34:41.542Z,19.13
2019-02-09T11:37:23.634Z,16.50
2019-02-09T11:40:05.883Z,13.07
2019-02-09T11:42:47.733Z,18.63
2019-02-09T11:45:29.618Z,27.60
2019-02-09T11:48:11.933Z,18.57
2019-02-09T11:50:53.550Z,12.47
2019-02-09T11:53:35.793Z,10.70
2019-02-09T11:56:17.541Z,24.73
2019-02-09T11:58:59.302Z,21.40
2019-02-09T12:01:41.275Z,20.17
2019-02-09T12:04:23.614Z,11.13
2019-02-09T12:07:05.815Z,10.87
2019-02-09T12:09:47.518Z,14.20
2019-02-09T12:12:29.398Z,15.80
2019-02-09T12:15:11.066Z,27.47
2019-02-09T12:17:53.222Z,10.63
2019-02-09T12:20:35.267Z,9.57
2019-02-09T12:23:16.953Z,9.90
2019-02-09T12:25:58.761Z,9.27
2019-02-09T12:28:41.062Z,9.10
2019-02-09T12:31:23.227Z,8.50
2019-02-09T12:34:05.002Z,8.33
2019-02-09T12:36:47.154Z,8.87
2019-02-09T12:39:29.408Z,8.40
2019-02-09T12:42:11.500Z,9.57
2019-02-09T12:44:53.193Z,9.53
2019-02-09T12:47:35.186Z,8.87
2019-02-09T12:50:17.522Z,13.00
2019-02-09T12:52:59.187Z,20.47
2019-02-09T12:55:41.630Z,13.00
2019-02-09T12:58:23.566Z,19.90
2019-02-09T13:01:05.358Z,16.70
2019-02-09T13:03:47.376Z,9.57
2019-02-09T13:06:29.178Z,9.50
2019-02-09T13:09:09.925Z,8.53
2019-02-09T13:11:59.353Z,9.40
2019-02-09T13:14:42.966Z,8.47
2019-02-09T13:17:25.073Z,8.07
2019-02-09T13:20:07.301Z,7.90
2019-02-09T13:22:49.186Z,7.90
2019-02-09T13:25:31.518Z,8.20
2019-02-09T13:28:13.286Z,7.60
2019-02-09T13:30:55.317Z,16.23
2019-02-09T13:33:39.063Z,10.53
2019-02-09T13:36:20.830Z,7.30
2019-02-09T13:39:02.955Z,8.63
2019-02-09T13:41:45.058Z,9.27
2019-02-09T13:44:26.927Z,26.00
2019-02-09T13:47:08.770Z,19.13
2019-02-09T13:49:51.052Z,18.27
2019-02-09T13:52:33.183Z,30.87
2019-02-09T13:55:14.973Z,15.40
2019-02-09T13:57:56.830Z,26.13
2019-02-09T14:00:38.574Z,15.90
2019-02-09T14:03:20.362Z,21.20
2019-02-09T14:06:08.095Z,25.13
2019-02-09T14:08:46.366Z,12.93
2019-02-09T14:11:28.515Z,12.17
2019-02-09T14:14:10.386Z,20.60
2019-02-09T14:16:52.385Z,17.53
2019-02-09T14:19:35.189Z,12.03
2019-02-09T14:22:17.017Z,8.80
2019-02-09T14:24:58.649Z,7.70
2019-02-09T14:27:40.426Z,8.60
2019-02-09T14:30:22.998Z,9.27
2019-02-09T14:33:04.535Z,9.70
2019-02-09T14:35:46.522Z,9.20
2019-02-09T14:38:29.095Z,10.10
2019-02-09T14:41:10.874Z,10.40
2019-02-09T14:43:52.734Z,10.43
2019-02-09T14:46:34.566Z,11.13
2019-02-09T14:49:16.641Z,11.77
2019-02-09T14:51:58.365Z,10.00
2019-02-09T14:54:40.812Z,9.70
2019-02-09T14:57:23.313Z,9.73
2019-02-09T15:00:05.222Z,9.17
2019-02-09T15:02:53.740Z,9.23
2019-02-09T15:05:29.055Z,9.87
2019-02-09T15:08:18.406Z,10.13
2019-02-09T15:11:00.246Z,9.50
2019-02-09T15:13:49.658Z,9.53
2019-02-09T15:16:33.466Z,9.23
2019-02-09T15:19:15.914Z,9.43
2019-02-09T15:21:57.992Z,9.27
2019-02-09T15:24:39.989Z,9.77
2019-02-09T15:27:21.992Z,8.97
2019-02-09T15:30:03.842Z,9.00
2019-02-09T15:32:45.628Z,9.00
2019-02-09T15:35:27.414Z,9.30
2019-02-09T15:38:09.422Z,10.07
2019-02-09T15:40:51.142Z,11.50
2019-02-09T15:43:32.834Z,11.07
2019-02-09T15:46:14.943Z,11.13
2019-02-09T15:48:57.510Z,24.93
2019-02-09T15:51:39.277Z,73.07
2019-02-09T15:54:20.897Z,20.43
2019-02-09T15:57:03.262Z,23.97
2019-02-09T15:59:45.194Z,25.73
2019-02-09T16:02:27.166Z,15.67
2019-02-09T16:05:09.250Z,13.93
2019-02-09T16:07:51.476Z,12.23
2019-02-09T16:10:33.611Z,12.13
2019-02-09T16:13:15.752Z,12.20
2019-02-09T16:15:58.025Z,11.47
2019-02-09T16:18:40.018Z,11.63
2019-02-09T16:21:21.830Z,11.90
2019-02-09T16:24:03.730Z,13.80
2019-02-09T16:26:46.115Z,13.10
2019-02-09T16:29:27.862Z,14.00
2019-02-09T16:32:08.394Z,16.00
2019-02-09T16:34:57.799Z,17.03
2019-02-09T16:37:41.736Z,18.30
2019-02-09T16:40:23.677Z,26.67
2019-02-09T16:43:06.203Z,23.73
2019-02-09T16:45:48.790Z,23.50
2019-02-09T16:48:30.692Z,21.90
2019-02-09T16:51:12.658Z,20.83
2019-02-09T16:53:54.492Z,20.63
2019-02-09T16:56:36.410Z,23.13
2019-02-09T16:59:18.538Z,22.00
2019-02-09T17:02:00.735Z,19.90
2019-02-09T17:04:42.646Z,17.23
2019-02-09T17:07:24.846Z,17.03
2019-02-09T17:10:06.630Z,16.53
2019-02-09T17:12:48.666Z,40.20
2019-02-09T17:15:30.651Z,42.23
2019-02-09T17:18:12.446Z,30.63
2019-02-09T17:20:54.513Z,31.70
2019-02-09T17:23:36.346Z,43.93
2019-02-09T17:26:18.189Z,42.97
2019-02-09T17:29:00.357Z,30.77
2019-02-09T17:31:42.230Z,26.27
2019-02-09T17:34:24.418Z,21.53
2019-02-09T17:37:06.579Z,22.27
2019-02-09T17:39:48.282Z,24.97
2019-02-09T17:42:30.341Z,20.67
2019-02-09T17:45:12.030Z,17.27
2019-02-09T17:47:53.950Z,22.20
2019-02-09T17:50:36.274Z,32.73
2019-02-09T17:53:18.297Z,24.20
2019-02-09T17:56:00.675Z,27.90
2019-02-09T17:58:43.010Z,26.90
2019-02-09T18:01:25.489Z,28.40
2019-02-09T18:04:07.964Z,21.03
2019-02-09T18:06:49.726Z,19.20
2019-02-09T18:09:32.741Z,18.83
2019-02-09T18:12:14.697Z,18.77
2019-02-09T18:14:57.130Z,19.40
2019-02-09T18:17:39.043Z,20.40
2019-02-09T18:20:21.444Z,20.17
2019-02-09T18:23:03.322Z,18.83
2019-02-09T18:25:45.042Z,18.07
2019-02-09T18:28:26.806Z,17.77
2019-02-09T18:31:08.625Z,20.10
2019-02-09T18:33:50.618Z,19.47
2019-02-09T18:36:32.690Z,18.63
2019-02-09T18:39:15.157Z,16.63
2019-02-09T18:41:56.791Z,16.20
2019-02-09T18:44:38.740Z,31.10
2019-02-09T18:47:20.642Z,21.63
2019-02-09T18:50:02.862Z,18.73
2019-02-09T18:52:44.669Z,16.87
2019-02-09T18:55:26.869Z,19.40
2019-02-09T18:58:08.897Z,22.90
2019-02-09T19:00:50.948Z,21.50
2019-02-09T19:03:33.112Z,19.50
2019-02-09T19:06:15.017Z,19.90
2019-02-09T19:08:57.005Z,20.67
2019-02-09T19:11:39.312Z,24.33
2019-02-09T19:14:21.374Z,24.00
2019-02-09T19:17:03.524Z,26.70
2019-02-09T19:19:45.502Z,23.87
2019-02-09T19:22:27.744Z,22.27
2019-02-09T19:25:09.874Z,20.00
2019-02-09T19:27:52.049Z,19.70
2019-02-09T19:30:34.339Z,19.50
2019-02-09T19:33:16.613Z,20.40
2019-02-09T19:35:58.349Z,20.03
2019-02-09T19:38:40.114Z,19.03
2019-02-09T19:41:21.877Z,18.13
2019-02-09T19:44:04.030Z,17.80
2019-02-09T19:46:47.234Z,18.20
2019-02-09T19:49:29.589Z,20.63
2019-02-09T19:52:12.117Z,20.80
2019-02-09T19:54:53.890Z,19.40
2019-02-09T19:57:35.926Z,18.43
2019-02-09T20:00:17.611Z,19.77
2019-02-09T20:02:59.537Z,20.00
2019-02-09T20:05:41.614Z,21.40
2019-02-09T20:08:23.746Z,23.00
2019-02-09T20:11:05.594Z,19.83
2019-02-09T20:13:47.847Z,64.47
2019-02-09T20:16:29.591Z,40.73
2019-02-09T20:19:11.766Z,27.07
2019-02-09T20:21:53.898Z,23.00
2019-02-09T20:24:35.942Z,20.00
2019-02-09T20:27:18.136Z,19.13
2019-02-09T20:29:59.778Z,17.10
2019-02-09T20:32:41.874Z,17.83
2019-02-09T20:35:27.806Z,18.40
2019-02-09T20:38:07.966Z,17.43
2019-02-09T20:40:49.817Z,18.33
2019-02-09T20:43:30.287Z,18.37
2019-02-09T20:46:19.703Z,19.60
2019-02-09T20:49:03.054Z,23.50
2019-02-09T20:51:44.979Z,27.43
2019-02-09T20:54:26.789Z,37.93
2019-02-09T20:57:10.140Z,21.50
2019-02-09T20:59:52.286Z,18.13
2019-02-09T21:02:33.949Z,16.63
2019-02-09T21:05:15.803Z,16.37
2019-02-09T21:07:46.186Z,18.03
2019-02-09T21:13:37.717Z,52.17
2019-02-09T21:16:21.306Z,18.30
2019-02-09T21:19:02.927Z,37.53
2019-02-09T21:21:44.738Z,36.37
2019-02-09T21:24:15.110Z,27.37
2019-02-09T21:27:05.914Z,27.53
2019-02-09T21:29:49.963Z,25.77
2019-02-09T21:32:31.971Z,19.70
2019-02-09T21:35:14.034Z,20.17
2019-02-09T21:37:56.077Z,30.50
2019-02-09T21:40:37.785Z,28.03
2019-02-09T21:43:19.467Z,28.13
2019-02-09T21:46:02.021Z,24.60
2019-02-09T21:48:43.742Z,19.13
2019-02-09T21:51:25.854Z,16.70
2019-02-09T21:54:06.280Z,19.30
2019-02-09T21:56:55.567Z,22.27
2019-02-09T21:59:38.885Z,24.80
2019-02-09T22:02:20.662Z,21.00
2019-02-09T22:05:02.467Z,19.90
2019-02-09T22:07:44.234Z,18.80
2019-02-09T22:10:30.483Z,20.43
2019-02-09T22:13:10.165Z,19.40
2019-02-09T22:15:52.214Z,19.10
2019-02-09T22:18:34.431Z,20.40
2019-02-09T22:21:16.941Z,17.50
2019-02-09T22:23:59.441Z,15.73
2019-02-09T22:26:41.403Z,15.93
2019-02-09T22:29:23.732Z,20.23
2019-02-09T22:32:05.920Z,21.27
2019-02-09T22:34:47.978Z,23.13
2019-02-09T22:37:29.903Z,24.63
2019-02-09T22:40:12.367Z,22.57
2019-02-09T22:42:54.192Z,20.20
2019-02-09T22:45:36.278Z,17.90
2019-02-09T22:48:18.126Z,17.00
2019-02-09T22:51:00.155Z,15.03
2019-02-09T22:53:42.162Z,17.93
2019-02-09T22:56:23.818Z,17.27
2019-02-09T22:59:05.878Z,19.47
2019-02-09T23:01:47.798Z,17.63
2019-02-09T23:04:29.569Z,19.10
2019-02-09T23:07:11.382Z,21.00
2019-02-09T23:10:12.900Z,18.90
2019-02-09T23:12:48.353Z,17.50
2019-02-09T23:15:40.186Z,17.67
2019-02-09T23:18:23.790Z,19.43
2019-02-09T23:21:06.119Z,19.73
2019-02-09T23:23:47.749Z,29.83
2019-02-09T23:26:29.602Z,41.00
2019-02-09T23:29:11.866Z,40.03
2019-02-09T23:31:53.542Z,37.17
2019-02-09T23:34:35.376Z,28.80
2019-02-09T23:37:17.005Z,26.20
2019-02-09T23:39:59.531Z,29.47
2019-02-09T23:42:41.346Z,25.73
2019-02-09T23:45:23.395Z,23.57
2019-02-09T23:48:05.399Z,22.57
2019-02-09T23:50:47.182Z,20.17
2019-02-09T23:53:29.242Z,18.17
2019-02-09T23:56:11.726Z,18.37
2019-02-09T23:58:53.454Z,20.40
